createdAt,value
2018-05-12T00:01:01.609Z,90.70
2018-05-12T00:03:29.089Z,90.80
2018-05-12T00:05:57.515Z,91.00
2018-05-12T00:08:24.976Z,91.00
2018-05-12T00:10:52.476Z,91.10
2018-05-12T00:13:19.948Z,91.20
2018-05-12T00:15:48.184Z,91.20
2018-05-12T00:18:15.671Z,91.20
2018-05-12T00:20:43.143Z,91.50
2018-05-12T00:23:11.379Z,91.50
2018-05-12T00:25:38.856Z,91.50
2018-05-12T00:28:06.311Z,91.60
2018-05-12T00:30:34.564Z,91.60
2018-05-12T00:33:02.046Z,91.60
2018-05-12T00:35:29.660Z,91.80
2018-05-12T00:37:57.163Z,92.10
2018-05-12T00:40:25.400Z,92.10
2018-05-12T00:42:52.937Z,92.10
2018-05-12T00:45:20.369Z,92.20
2018-05-12T00:47:48.595Z,92.40
2018-05-12T00:50:16.068Z,92.40
2018-05-12T00:52:43.532Z,92.40
2018-05-12T00:55:11.004Z,92.30
2018-05-12T00:57:39.243Z,92.50
2018-05-12T01:00:06.711Z,92.50
2018-05-12T01:02:34.187Z,92.60
2018-05-12T01:05:01.654Z,92.70
2018-05-12T01:07:29.897Z,93.00
2018-05-12T01:09:57.369Z,92.90
2018-05-12T01:12:24.844Z,92.90
2018-05-12T01:14:53.080Z,93.00
2018-05-12T01:17:20.559Z,93.00
2018-05-12T01:19:48.018Z,93.20
2018-05-12T01:22:15.492Z,93.20
2018-05-12T01:24:43.731Z,93.70
2018-05-12T01:27:11.211Z,93.40
2018-05-12T01:29:38.679Z,93.60
2018-05-12T01:32:06.919Z,93.80
2018-05-12T01:34:34.396Z,93.80
2018-05-12T01:37:01.873Z,93.90
2018-05-12T01:39:30.105Z,94.40
2018-05-12T01:41:57.619Z,94.30
2018-05-12T01:44:25.106Z,94.60
2018-05-12T01:46:52.570Z,94.60
2018-05-12T01:49:20.048Z,94.70
2018-05-12T01:51:47.526Z,94.90
2018-05-12T01:54:15.036Z,95.10
2018-05-12T01:56:42.504Z,95.30
2018-05-12T01:59:09.973Z,95.40
2018-05-12T02:01:37.440Z,95.40
2018-05-12T02:04:04.930Z,95.70
2018-05-12T02:06:33.267Z,95.60
2018-05-12T02:09:00.752Z,95.60
2018-05-12T02:11:29.026Z,96.10
2018-05-12T02:13:57.252Z,96.40
2018-05-12T02:16:24.720Z,96.30
2018-05-12T02:18:52.185Z,96.70
2018-05-12T02:21:19.676Z,96.90
2018-05-12T02:23:47.905Z,96.70
2018-05-12T02:26:15.395Z,96.70
2018-05-12T02:28:42.860Z,96.70
2018-05-12T02:31:11.216Z,96.80
2018-05-12T02:33:39.463Z,96.70
2018-05-12T02:36:06.948Z,96.70
2018-05-12T02:38:34.586Z,96.50
2018-05-12T02:41:02.076Z,96.60
2018-05-12T02:43:29.544Z,96.90
2018-05-12T02:45:57.831Z,97.20
2018-05-12T02:48:26.063Z,96.90
2018-05-12T02:50:53.530Z,96.90
2018-05-12T02:53:21.008Z,96.80
2018-05-12T02:55:48.463Z,96.90
2018-05-12T02:58:16.714Z,97.40
2018-05-12T03:00:44.200Z,97.70
2018-05-12T03:03:11.688Z,97.90
2018-05-12T03:05:39.158Z,98.20
2018-05-12T03:08:06.646Z,98.50
2018-05-12T03:10:34.104Z,98.70
2018-05-12T03:13:01.578Z,99.00
2018-05-12T03:15:29.900Z,99.60
2018-05-12T03:17:57.392Z,99.60
2018-05-12T03:20:24.863Z,99.70
2018-05-12T03:22:52.446Z,99.90
2018-05-12T03:25:19.907Z,99.90
2018-05-12T03:27:48.149Z,99.90
2018-05-12T03:30:15.630Z,99.90
2018-05-12T03:32:43.858Z,99.90
2018-05-12T03:35:11.342Z,99.90
2018-05-12T03:37:38.889Z,99.90
2018-05-12T03:40:07.280Z,99.90
2018-05-12T03:42:34.740Z,99.90
2018-05-12T03:45:02.276Z,99.90
2018-05-12T03:47:29.733Z,99.90
2018-05-12T03:49:57.206Z,99.90
2018-05-12T03:52:25.444Z,99.90
2018-05-12T03:54:52.928Z,99.90
2018-05-12T03:57:20.414Z,99.90
2018-05-12T03:59:48.776Z,99.90
2018-05-12T04:02:16.257Z,99.90
2018-05-12T04:04:56.235Z,99.90
2018-05-12T04:07:35.622Z,99.90
2018-05-12T04:10:15.047Z,99.90
2018-05-12T04:12:42.748Z,99.90
2018-05-12T04:15:10.998Z,99.90
2018-05-12T04:17:38.468Z,99.90
2018-05-12T04:20:06.692Z,99.90
2018-05-12T04:22:34.167Z,99.90
2018-05-12T04:25:01.625Z,99.90
2018-05-12T04:27:29.115Z,99.90
2018-05-12T04:29:56.569Z,99.90
2018-05-12T04:32:24.805Z,99.90
2018-05-12T04:34:52.271Z,99.90
2018-05-12T04:37:19.760Z,99.90
2018-05-12T04:39:48.091Z,99.90
2018-05-12T04:42:15.560Z,99.90
2018-05-12T04:44:43.201Z,99.90
2018-05-12T04:47:10.687Z,99.90
2018-05-12T04:49:38.170Z,99.90
2018-05-12T04:52:06.395Z,99.90
2018-05-12T04:54:33.880Z,99.90
2018-05-12T04:57:01.347Z,99.90
2018-05-12T04:59:28.820Z,99.90
2018-05-12T05:01:57.048Z,99.90
2018-05-12T05:04:24.530Z,99.90
2018-05-12T05:06:53.508Z,99.90
2018-05-12T05:09:20.984Z,99.90
2018-05-12T05:11:48.461Z,99.90
2018-05-12T05:14:16.696Z,99.90
2018-05-12T05:16:44.328Z,99.90
2018-05-12T05:19:11.805Z,99.90
2018-05-12T05:21:39.259Z,99.90
2018-05-12T05:24:06.758Z,99.90
2018-05-12T05:26:34.212Z,99.90
2018-05-12T05:29:01.707Z,99.90
2018-05-12T05:31:29.180Z,99.90
2018-05-12T05:33:56.656Z,99.90
2018-05-12T05:36:24.124Z,99.90
2018-05-12T05:38:51.656Z,99.90
2018-05-12T05:41:19.134Z,99.90
2018-05-12T05:43:46.606Z,99.90
2018-05-12T05:46:14.871Z,99.90
2018-05-12T05:48:42.337Z,99.90
2018-05-12T05:51:09.883Z,99.90
2018-05-12T05:53:37.477Z,99.90
2018-05-12T05:56:05.854Z,99.90
2018-05-12T05:58:34.219Z,99.90
2018-05-12T06:01:01.638Z,99.90
2018-05-12T06:03:29.111Z,99.90
2018-05-12T06:05:56.788Z,99.90
2018-05-12T06:08:24.334Z,99.90
2018-05-12T06:10:51.812Z,99.90
2018-05-12T06:13:19.295Z,99.90
2018-05-12T06:15:47.548Z,99.90
2018-05-12T06:18:15.011Z,99.90
2018-05-12T06:20:43.253Z,99.90
2018-05-12T06:23:10.886Z,99.90
2018-05-12T06:25:38.347Z,99.90
2018-05-12T06:28:05.826Z,99.90
2018-05-12T06:30:33.320Z,99.90
2018-05-12T06:33:01.608Z,99.90
2018-05-12T06:35:29.251Z,99.90
2018-05-12T06:37:56.728Z,99.90
2018-05-12T06:40:24.959Z,99.90
2018-05-12T06:42:52.448Z,99.90
2018-05-12T06:45:20.689Z,99.20
2018-05-12T06:47:48.187Z,99.20
2018-05-12T06:50:16.428Z,99.60
2018-05-12T06:52:43.965Z,99.60
2018-05-12T06:55:12.151Z,99.20
2018-05-12T06:57:39.622Z,99.20
2018-05-12T07:00:07.123Z,99.30
2018-05-12T07:02:35.377Z,98.80
2018-05-12T07:05:03.662Z,98.70
2018-05-12T07:07:31.911Z,98.40
2018-05-12T07:09:59.383Z,98.30
2018-05-12T07:12:27.769Z,98.60
2018-05-12T07:14:55.186Z,98.30
2018-05-12T07:17:22.675Z,97.80
2018-05-12T07:19:50.911Z,97.50
2018-05-12T07:22:18.390Z,97.50
2018-05-12T07:24:45.881Z,97.80
2018-05-12T07:27:14.113Z,98.00
2018-05-12T07:29:41.694Z,98.00
2018-05-12T07:32:09.859Z,97.30
2018-05-12T07:34:37.461Z,97.30
2018-05-12T07:37:04.944Z,97.40
2018-05-12T07:39:32.440Z,96.90
2018-05-12T07:41:59.930Z,96.80
2018-05-12T07:44:27.411Z,96.60
2018-05-12T07:46:55.105Z,96.30
2018-05-12T07:49:22.582Z,96.50
2018-05-12T07:51:50.153Z,96.10
2018-05-12T07:54:18.417Z,95.90
2018-05-12T07:56:45.888Z,95.90
2018-05-12T07:59:14.197Z,95.20
2018-05-12T08:01:41.701Z,95.20
2018-05-12T08:04:09.538Z,95.80
2018-05-12T08:06:37.090Z,95.20
2018-05-12T08:09:04.571Z,94.80
2018-05-12T08:11:32.315Z,95.10
2018-05-12T08:13:59.784Z,94.70
2018-05-12T08:16:27.346Z,94.80
2018-05-12T08:18:54.819Z,95.30
2018-05-12T08:21:22.351Z,94.80
2018-05-12T08:23:49.839Z,94.70
2018-05-12T08:26:17.348Z,94.10
2018-05-12T08:28:44.868Z,93.90
2018-05-12T08:31:13.114Z,93.60
2018-05-12T08:33:40.817Z,93.50
2018-05-12T08:36:08.302Z,93.20
2018-05-12T08:38:35.807Z,93.00
2018-05-12T08:41:03.364Z,93.40
2018-05-12T08:43:30.848Z,92.60
2018-05-12T08:45:58.376Z,93.40
2018-05-12T08:48:25.928Z,91.90
2018-05-12T08:50:55.166Z,90.50
2018-05-12T08:53:23.470Z,90.20
2018-05-12T08:55:50.957Z,90.20
2018-05-12T08:58:18.536Z,90.20
2018-05-12T09:00:46.797Z,89.30
2018-05-12T09:03:14.357Z,89.40
2018-05-12T09:05:41.836Z,89.00
2018-05-12T09:08:10.114Z,84.20
2018-05-12T09:10:38.367Z,84.40
2018-05-12T09:13:05.856Z,84.20
2018-05-12T09:15:34.104Z,79.40
2018-05-12T09:18:02.355Z,74.80
2018-05-12T09:20:29.853Z,74.80
2018-05-12T09:22:58.144Z,64.50
2018-05-12T09:25:25.656Z,64.50
2018-05-12T09:27:53.140Z,65.00
2018-05-12T09:30:20.621Z,63.10
2018-05-12T09:32:48.100Z,65.10
2018-05-12T09:35:15.633Z,62.60
2018-05-12T09:37:43.122Z,60.40
2018-05-12T09:40:10.927Z,61.40
2018-05-12T09:42:38.554Z,61.70
2018-05-12T09:45:06.009Z,61.00
2018-05-12T09:47:33.634Z,60.40
2018-05-12T09:50:01.104Z,58.80
2018-05-12T09:52:28.690Z,59.20
2018-05-12T09:54:56.136Z,60.40
2018-05-12T09:57:23.669Z,61.70
2018-05-12T09:59:51.197Z,61.00
2018-05-12T10:02:18.829Z,62.10
2018-05-12T10:04:46.343Z,63.40
2018-05-12T10:07:13.861Z,60.80
2018-05-12T10:09:41.599Z,62.00
2018-05-12T10:12:09.228Z,61.80
2018-05-12T10:14:36.776Z,61.80
2018-05-12T10:17:05.038Z,59.50
2018-05-12T10:19:32.510Z,59.50
2018-05-12T10:22:00.832Z,60.00
2018-05-12T10:24:28.448Z,59.90
2018-05-12T10:26:56.713Z,57.10
2018-05-12T10:29:24.955Z,56.70
2018-05-12T10:31:52.461Z,56.70
2018-05-12T10:34:20.706Z,56.60
2018-05-12T10:36:48.987Z,56.50
2018-05-12T10:39:16.501Z,57.80
2018-05-12T10:41:43.990Z,56.50
2018-05-12T10:44:11.473Z,57.00
2018-05-12T10:46:39.707Z,56.00
2018-05-12T10:49:07.185Z,55.90
2018-05-12T10:51:34.660Z,55.30
2018-05-12T10:54:02.909Z,54.00
2018-05-12T10:56:30.377Z,54.00
2018-05-12T10:58:58.097Z,53.30
2018-05-12T11:01:25.532Z,54.00
2018-05-12T11:03:53.009Z,54.70
2018-05-12T11:06:20.464Z,55.50
2018-05-12T11:08:47.960Z,53.20
2018-05-12T11:11:15.425Z,50.60
2018-05-12T11:13:43.667Z,51.70
2018-05-12T11:16:11.220Z,51.70
2018-05-12T11:18:38.608Z,51.00
2018-05-12T11:21:06.089Z,50.50
2018-05-12T11:23:34.326Z,49.00
2018-05-12T11:26:01.785Z,49.00
2018-05-12T11:28:29.289Z,49.60
2018-05-12T11:30:57.514Z,52.10
2018-05-12T11:33:24.977Z,52.00
2018-05-12T11:35:52.464Z,52.60
2018-05-12T11:38:20.696Z,50.40
2018-05-12T11:40:48.163Z,50.30
2018-05-12T11:43:15.792Z,49.70
2018-05-12T11:45:43.256Z,51.10
2018-05-12T11:48:10.721Z,51.70
2018-05-12T11:50:38.268Z,52.20
2018-05-12T11:53:05.825Z,51.50
2018-05-12T11:55:33.298Z,50.90
2018-05-12T11:58:01.032Z,50.10
2018-05-12T12:00:29.271Z,52.90
2018-05-12T12:02:56.724Z,53.00
2018-05-12T12:05:24.966Z,51.40
2018-05-12T12:07:52.474Z,51.50
2018-05-12T12:10:20.723Z,49.70
2018-05-12T12:12:48.229Z,49.70
2018-05-12T12:15:15.875Z,50.60
2018-05-12T12:17:44.121Z,49.40
2018-05-12T12:20:11.596Z,49.40
2018-05-12T12:22:39.839Z,49.70
2018-05-12T12:25:07.329Z,49.60
2018-05-12T12:27:34.795Z,49.80
2018-05-12T12:30:03.218Z,48.00
2018-05-12T12:32:30.677Z,47.90
2018-05-12T12:34:58.162Z,50.70
2018-05-12T12:37:25.677Z,49.80
2018-05-12T12:39:53.128Z,48.90
2018-05-12T12:42:20.614Z,48.80
2018-05-12T12:44:48.125Z,48.60
2018-05-12T12:47:16.367Z,49.20
2018-05-12T12:49:43.823Z,49.20
2018-05-12T12:52:11.297Z,49.40
2018-05-12T12:54:38.852Z,48.00
2018-05-12T12:57:06.465Z,47.80
2018-05-12T12:59:33.972Z,48.70
2018-05-12T13:02:01.437Z,49.90
2018-05-12T13:04:29.677Z,48.70
2018-05-12T13:06:57.379Z,48.70
2018-05-12T13:09:25.622Z,48.60
2018-05-12T13:11:53.111Z,48.50
2018-05-12T13:14:21.371Z,49.10
2018-05-12T13:16:48.859Z,49.10
2018-05-12T13:19:16.339Z,47.50
2018-05-12T13:21:43.805Z,49.20
2018-05-12T13:24:11.297Z,47.60
2018-05-12T13:26:38.752Z,46.50
2018-05-12T13:29:07.855Z,48.10
2018-05-12T13:31:35.320Z,48.10
2018-05-12T13:34:03.813Z,46.40
2018-05-12T13:36:32.044Z,48.90
2018-05-12T13:38:59.523Z,48.90
2018-05-12T13:41:26.987Z,46.60
2018-05-12T13:43:55.236Z,46.60
2018-05-12T13:46:22.689Z,46.60
2018-05-12T13:48:50.170Z,47.30
2018-05-12T13:51:17.641Z,47.50
2018-05-12T13:53:45.872Z,47.90
2018-05-12T13:56:13.335Z,47.80
2018-05-12T13:58:40.837Z,47.00
2018-05-12T14:01:09.085Z,48.90
2018-05-12T14:03:36.545Z,48.90
2018-05-12T14:06:04.011Z,46.90
2018-05-12T14:08:32.252Z,47.30
2018-05-12T14:10:59.739Z,46.90
2018-05-12T14:13:27.207Z,48.10
2018-05-12T14:15:55.449Z,47.80
2018-05-12T14:18:22.949Z,47.80
2018-05-12T14:20:51.184Z,45.50
2018-05-12T14:23:18.648Z,45.50
2018-05-12T14:25:46.131Z,45.60
2018-05-12T14:28:14.373Z,47.10
2018-05-12T14:30:41.840Z,47.10
2018-05-12T14:33:09.696Z,46.60
2018-05-12T14:35:37.154Z,46.70
2018-05-12T14:38:04.683Z,46.90
2018-05-12T14:40:32.156Z,46.80
2018-05-12T14:42:59.663Z,47.30
2018-05-12T14:45:27.944Z,47.70
2018-05-12T14:47:56.177Z,46.50
2018-05-12T14:50:23.639Z,46.50
2018-05-12T14:52:51.120Z,46.30
2018-05-12T14:55:19.371Z,46.30
2018-05-12T14:57:46.857Z,46.30
2018-05-12T15:00:15.136Z,46.10
2018-05-12T15:02:43.387Z,45.80
2018-05-12T15:05:11.638Z,45.20
2018-05-12T15:07:39.099Z,45.40
2018-05-12T15:10:06.572Z,46.00
2018-05-12T15:12:34.173Z,46.20
2018-05-12T15:15:01.638Z,46.70
2018-05-12T15:17:29.120Z,46.20
2018-05-12T15:19:56.596Z,47.20
2018-05-12T15:22:24.072Z,47.30
2018-05-12T15:24:51.547Z,48.20
2018-05-12T15:27:19.820Z,48.20
2018-05-12T15:29:48.095Z,48.50
2018-05-12T15:32:16.337Z,48.20
2018-05-12T15:34:43.830Z,48.10
2018-05-12T15:37:12.450Z,48.10
2018-05-12T15:39:39.944Z,48.10
2018-05-12T15:42:07.523Z,49.50
2018-05-12T15:44:35.146Z,49.90
2018-05-12T15:47:02.617Z,49.00
2018-05-12T15:49:30.118Z,48.20
2018-05-12T15:51:57.705Z,48.40
2018-05-12T15:54:25.442Z,49.00
2018-05-12T15:56:53.968Z,49.80
2018-05-12T15:59:21.698Z,49.80
2018-05-12T16:01:49.169Z,50.60
2018-05-12T16:04:16.655Z,49.90
2018-05-12T16:06:44.156Z,49.60
2018-05-12T16:09:12.433Z,48.70
2018-05-12T16:11:40.793Z,49.00
2018-05-12T16:14:09.043Z,48.80
2018-05-12T16:16:36.543Z,48.60
2018-05-12T16:19:04.769Z,49.60
2018-05-12T16:21:32.300Z,49.50
2018-05-12T16:23:59.781Z,49.90
2018-05-12T16:26:27.447Z,50.10
2018-05-12T16:28:54.920Z,50.50
2018-05-12T16:31:22.568Z,50.10
2018-05-12T16:33:50.015Z,50.90
2018-05-12T16:36:17.481Z,50.00
2018-05-12T16:38:44.948Z,49.20
2018-05-12T16:41:12.435Z,49.90
2018-05-12T16:43:40.668Z,50.80
2018-05-12T16:46:08.166Z,50.80
2018-05-12T16:48:36.508Z,50.30
2018-05-12T16:51:04.025Z,50.20
2018-05-12T16:53:31.504Z,49.90
2018-05-12T16:55:58.996Z,50.40
2018-05-12T16:58:26.513Z,51.00
2018-05-12T17:00:54.023Z,48.60
2018-05-12T17:03:22.278Z,48.00
2018-05-12T17:05:49.741Z,47.70
2018-05-12T17:08:17.570Z,46.50
2018-05-12T17:10:45.040Z,46.00
2018-05-12T17:13:12.733Z,45.30
2018-05-12T17:15:40.231Z,45.90
2018-05-12T17:18:07.697Z,45.70
2018-05-12T17:20:35.183Z,46.30
2018-05-12T17:23:02.877Z,47.00
2018-05-12T17:25:31.114Z,48.10
2018-05-12T17:27:58.566Z,48.00
2018-05-12T17:30:26.044Z,48.30
2018-05-12T17:32:53.513Z,48.90
2018-05-12T17:35:20.976Z,49.40
2018-05-12T17:37:49.253Z,51.00
2018-05-12T17:40:16.699Z,50.40
2018-05-12T17:42:45.058Z,50.80
2018-05-12T17:45:12.515Z,50.70
2018-05-12T17:47:39.987Z,50.40
2018-05-12T17:50:07.482Z,50.80
2018-05-12T17:52:35.679Z,51.20
2018-05-12T17:55:03.358Z,51.10
2018-05-12T17:57:30.823Z,51.50
2018-05-12T17:59:58.304Z,51.70
2018-05-12T18:02:25.863Z,51.70
2018-05-12T18:04:54.035Z,52.20
2018-05-12T18:07:22.267Z,52.40
2018-05-12T18:09:49.744Z,52.50
2018-05-12T18:12:17.208Z,52.70
2018-05-12T18:14:45.648Z,53.70
2018-05-12T18:17:13.175Z,54.50
2018-05-12T18:19:40.595Z,53.70
2018-05-12T18:22:08.078Z,54.10
2018-05-12T18:24:35.540Z,54.70
2018-05-12T18:27:03.814Z,54.90
2018-05-12T18:29:32.100Z,55.20
2018-05-12T18:32:00.368Z,55.40
2018-05-12T18:34:28.601Z,55.30
2018-05-12T18:36:56.068Z,55.50
2018-05-12T18:39:23.584Z,55.50
2018-05-12T18:41:51.066Z,56.10
2018-05-12T18:44:18.594Z,56.10
2018-05-12T18:46:46.000Z,57.00
2018-05-12T18:49:13.507Z,57.00
2018-05-12T18:51:40.986Z,56.80
2018-05-12T18:54:08.472Z,57.80
2018-05-12T18:56:36.042Z,58.90
2018-05-12T18:59:03.427Z,57.50
2018-05-12T19:01:31.667Z,57.90
2018-05-12T19:03:59.132Z,57.90
2018-05-12T19:06:27.432Z,59.00
2018-05-12T19:08:55.687Z,59.20
2018-05-12T19:11:23.335Z,59.20
2018-05-12T19:13:50.949Z,59.50
2018-05-12T19:16:18.428Z,59.90
2018-05-12T19:18:45.980Z,60.20
2018-05-12T19:21:13.616Z,60.90
2018-05-12T19:23:42.060Z,60.70
2018-05-12T19:26:09.535Z,60.60
2018-05-12T19:28:37.979Z,60.90
2018-05-12T19:31:05.497Z,60.90
2018-05-12T19:33:33.034Z,61.40
2018-05-12T19:36:00.517Z,61.10
2018-05-12T19:38:27.997Z,60.70
2018-05-12T19:40:55.486Z,61.30
2018-05-12T19:43:22.964Z,61.90
2018-05-12T19:45:51.221Z,61.90
2018-05-12T19:48:18.698Z,61.80
2018-05-12T19:50:47.067Z,63.30
2018-05-12T19:53:14.569Z,63.30
2018-05-12T19:55:42.123Z,63.60
2018-05-12T19:58:09.610Z,64.80
2018-05-12T20:00:37.101Z,65.20
2018-05-12T20:03:04.576Z,65.90
2018-05-12T20:05:32.873Z,67.10
2018-05-12T20:08:00.401Z,67.10
2018-05-12T20:10:28.671Z,68.30
2018-05-12T20:12:56.153Z,68.30
2018-05-12T20:15:24.388Z,69.20
2018-05-12T20:17:52.220Z,69.20
2018-05-12T20:20:19.717Z,69.60
2018-05-12T20:22:47.201Z,70.00
2018-05-12T20:25:15.593Z,71.30
2018-05-12T20:27:43.132Z,71.30
2018-05-12T20:30:11.393Z,71.80
2018-05-12T20:32:38.905Z,71.80
2018-05-12T20:35:06.388Z,72.60
2018-05-12T20:37:33.921Z,72.20
2018-05-12T20:40:01.392Z,72.40
2018-05-12T20:42:28.905Z,72.60
2018-05-12T20:44:57.157Z,73.30
2018-05-12T20:47:24.643Z,73.30
2018-05-12T20:49:52.178Z,73.40
2018-05-12T20:54:53.598Z,73.80
2018-05-12T20:57:21.079Z,74.40
2018-05-12T20:59:48.578Z,74.30
2018-05-12T21:02:16.825Z,75.00
2018-05-12T21:04:45.845Z,75.00
2018-05-12T21:07:14.073Z,75.20
2018-05-12T21:09:41.667Z,75.20
2018-05-12T21:12:09.080Z,75.20
2018-05-12T21:14:36.572Z,75.20
2018-05-12T21:17:04.044Z,75.60
2018-05-12T21:19:32.308Z,76.00
2018-05-12T21:22:00.572Z,76.60
2018-05-12T21:24:28.063Z,76.40
2018-05-12T21:26:56.301Z,76.50
2018-05-12T21:29:23.881Z,76.60
2018-05-12T21:31:51.277Z,76.50
2018-05-12T21:34:18.777Z,76.50
2018-05-12T21:36:46.260Z,76.20
2018-05-12T21:39:14.513Z,75.60
2018-05-12T21:41:42.184Z,75.60
2018-05-12T21:44:10.424Z,74.60
2018-05-12T21:46:37.914Z,74.60
2018-05-12T21:49:05.382Z,74.30
2018-05-12T21:51:33.481Z,74.30
2018-05-12T21:54:00.958Z,74.60
2018-05-12T21:56:28.439Z,74.30
2018-05-12T21:58:55.955Z,74.30
2018-05-12T22:01:23.473Z,74.60
2018-05-12T22:03:50.972Z,74.10
2018-05-12T22:06:18.462Z,74.00
2018-05-12T22:08:45.940Z,74.00
2018-05-12T22:11:13.424Z,73.70
2018-05-12T22:13:41.673Z,73.90
2018-05-12T22:16:09.324Z,73.80
2018-05-12T22:18:37.106Z,74.50
2018-05-12T22:21:04.685Z,73.60
2018-05-12T22:23:32.924Z,73.30
2018-05-12T22:26:00.409Z,73.20
2018-05-12T22:28:28.660Z,73.50
2018-05-12T22:30:56.133Z,73.50
2018-05-12T22:33:24.396Z,73.80
2018-05-12T22:35:51.872Z,73.80
2018-05-12T22:38:20.236Z,73.60
2018-05-12T22:40:47.695Z,73.50
2018-05-12T22:43:15.185Z,73.20
2018-05-12T22:45:42.640Z,73.40
2018-05-12T22:48:10.120Z,73.10
2018-05-12T22:50:37.668Z,73.20
2018-05-12T22:53:05.158Z,72.90
2018-05-12T22:55:32.620Z,73.00
2018-05-12T22:58:00.093Z,73.30
2018-05-12T23:00:28.492Z,73.20
2018-05-12T23:02:56.751Z,73.70
2018-05-12T23:05:24.216Z,73.70
2018-05-12T23:07:52.460Z,75.00
2018-05-12T23:10:19.926Z,74.90
2018-05-12T23:12:47.392Z,75.40
2018-05-12T23:15:14.857Z,75.90
2018-05-12T23:17:42.338Z,76.20
2018-05-12T23:20:09.795Z,77.00
2018-05-12T23:22:37.500Z,76.80
2018-05-12T23:25:05.105Z,77.50
2018-05-12T23:27:33.235Z,75.10
2018-05-12T23:30:00.758Z,75.10
2018-05-12T23:32:28.249Z,75.80
2018-05-12T23:34:55.753Z,75.70
2018-05-12T23:37:23.980Z,78.60
2018-05-12T23:39:51.451Z,78.60
2018-05-12T23:42:18.953Z,79.40
2018-05-12T23:44:46.389Z,79.80
2018-05-12T23:47:14.048Z,81.10
2018-05-12T23:49:42.344Z,82.10
2018-05-12T23:52:09.819Z,82.10
2018-05-12T23:54:37.292Z,82.70
2018-05-12T23:57:04.764Z,83.10
2018-05-12T23:59:32.287Z,83.60
